Pagina principale
METAR-TAF:

METAR-TAF

Aeroporti :

Aeroporto di Palermo-Punta Raisi

Palermo, Italia

latitudine: 38-11N, longitudine: 013-06E, altezza: 21 m

Osservazione

Il bollettino è stato emesso 10 minuti fa, alle 20:50 UTC
Vento 2 kt da direzioni variabili
Temperature 24°C
Umidità 74%
Pressione 1018 hPa
Visibilità 10 km o più
Nubi sparse ad un'altezza di 3200 ft

METAR: LICJ 162050Z VRB02KT 9999 SCT032 24/19 Q1018

Ora: 23:00 (21:00 UTC)

Previsione

Il bollettino è stato emesso 4 ore e 0 minuti fa, alle 17:00 UTC
Previsione valida dal 16 alle 18 UTC al 17 alle 18 UTC
Vento 5 kt da direzioni variabili
Visibilità 10 km o più
nessuna nube inferiore a 1500 m e nessun cumulonembo
Evoluzione graduale
dal 17 alle 08 UTC al 17 alle 10 UTC
Vento 12 kt da nord-est

TAF: LICJ 161700Z 1618/1718 VRB05KT CAVOK BECMG 1708/1710 04012KT

Osservazioni e previsioni meteorologiche di più di 4000 aeroporti (messaggi METAR e TAF).

Le stazioni disponibili sono rappresentate dai dischi gialli e rossi sulla carta.

Puntare il mouse per vedere il nome della stazione.

Clicca sopra per visualizzare le osservazioni e previsioni meteorologiche.

Per cambiare la mappa : fare clic sui pulsanti verdi con una croce nera per ingrandire, il pulsante verde con un trattino per diminuire, o sulla freccia verde per le mappe adiacenti.


METAR-TAF: